DLH5YU EDDN-EDDF
Flight info
| Callsign | DLH5YU |
|---|---|
| Flight time | 0h 27m |
| Altitude | 22000 |
| Route | SUKAD1G SUKAD DCT PIWAW T159 SPESA SPESA5B |
| Aircraft | A320/M-SDE2E3FGIJ1LORWXYZ/HB1 |
Departure
| Time | 2026-05-06 11:44 |
|---|---|
| Airport | Nuremberg Airport (EDDN) |
Arrival
| Time | 2026-05-06 12:12 |
|---|---|
| Airport | Frankfurt Main Airport (EDDF) |
| Time | Latitude | Longitude | Altitude | Speed | Heading |
|---|---|---|---|---|---|
| 2026-05-06 11:14 | 49.49513 | 11.07790 | 1026 ft | 0 kts | 188° |
| 2026-05-06 11:36 | 49.49526 | 11.07793 | 1027 ft | 4 kts | 187° |
| 2026-05-06 11:36 | 49.49553 | 11.07797 | 1029 ft | 4 kts | 181° |
| 2026-05-06 11:37 | 49.49580 | 11.07795 | 1030 ft | 4 kts | 169° |
| 2026-05-06 11:37 | 49.49589 | 11.07792 | 1030 ft | 0 kts | 166° |
| 2026-05-06 11:39 | 49.49579 | 11.07835 | 1030 ft | 14 kts | 98° |
| 2026-05-06 11:39 | 49.49563 | 11.08027 | 1030 ft | 19 kts | 97° |
| 2026-05-06 11:39 | 49.49537 | 11.08242 | 1031 ft | 21 kts | 102° |
| 2026-05-06 11:39 | 49.49581 | 11.08362 | 1032 ft | 14 kts | 9° |
| 2026-05-06 11:40 | 49.49611 | 11.08466 | 1032 ft | 11 kts | 97° |
| 2026-05-06 11:40 | 49.49602 | 11.08573 | 1033 ft | 12 kts | 98° |
| 2026-05-06 11:40 | 49.49585 | 11.08754 | 1035 ft | 19 kts | 98° |
| 2026-05-06 11:40 | 49.49565 | 11.08958 | 1037 ft | 19 kts | 98° |
| 2026-05-06 11:41 | 49.49543 | 11.09172 | 1038 ft | 21 kts | 99° |
| 2026-05-06 11:41 | 49.49534 | 11.09359 | 1042 ft | 16 kts | 66° |
| 2026-05-06 11:41 | 49.49591 | 11.09482 | 1042 ft | 6 kts | 54° |
| 2026-05-06 11:41 | 49.49592 | 11.09484 | 1042 ft | 0 kts | 54° |
| 2026-05-06 11:42 | 49.49609 | 11.09521 | 1043 ft | 11 kts | 54° |
| 2026-05-06 11:43 | 49.49663 | 11.09571 | 1045 ft | 8 kts | 355° |
| 2026-05-06 11:43 | 49.49699 | 11.09528 | 1045 ft | 7 kts | 300° |
| 2026-05-06 11:43 | 49.49709 | 11.09443 | 1043 ft | 13 kts | 278° |
| 2026-05-06 11:44 | 49.49882 | 11.07662 | 1032 ft | 147 kts | 278° |
| 2026-05-06 11:44 | 49.50051 | 11.05986 | 1430 ft | 161 kts | 278° |
| 2026-05-06 11:44 | 49.50220 | 11.04288 | 2174 ft | 160 kts | 276° |
| 2026-05-06 11:44 | 49.50390 | 11.02521 | 2660 ft | 177 kts | 276° |
| 2026-05-06 11:45 | 49.50580 | 11.00535 | 3040 ft | 199 kts | 276° |
| 2026-05-06 11:45 | 49.50792 | 10.98303 | 3396 ft | 224 kts | 276° |
| 2026-05-06 11:45 | 49.51030 | 10.95801 | 3866 ft | 249 kts | 277° |
| 2026-05-06 11:45 | 49.51295 | 10.93065 | 4594 ft | 263 kts | 276° |
| 2026-05-06 11:46 | 49.51571 | 10.90259 | 5535 ft | 268 kts | 277° |
| 2026-05-06 11:46 | 49.51851 | 10.87409 | 6508 ft | 270 kts | 276° |
| 2026-05-06 11:46 | 49.52130 | 10.84525 | 7444 ft | 274 kts | 276° |
| 2026-05-06 11:46 | 49.52410 | 10.81615 | 8370 ft | 277 kts | 276° |
| 2026-05-06 11:47 | 49.52694 | 10.78668 | 9308 ft | 280 kts | 276° |
| 2026-05-06 11:47 | 49.52980 | 10.75687 | 10115 ft | 287 kts | 275° |
| 2026-05-06 11:47 | 49.53273 | 10.72564 | 10415 ft | 310 kts | 275° |
| 2026-05-06 11:47 | 49.53586 | 10.69217 | 11007 ft | 320 kts | 275° |
| 2026-05-06 11:48 | 49.53907 | 10.65800 | 11776 ft | 324 kts | 275° |
| 2026-05-06 11:48 | 49.54233 | 10.62342 | 12581 ft | 328 kts | 275° |
| 2026-05-06 11:48 | 49.54563 | 10.58844 | 13379 ft | 332 kts | 275° |
| 2026-05-06 11:48 | 49.54978 | 10.55326 | 14100 ft | 338 kts | 282° |
| 2026-05-06 11:49 | 49.55835 | 10.51929 | 14761 ft | 346 kts | 294° |
| 2026-05-06 11:49 | 49.57159 | 10.48786 | 15414 ft | 354 kts | 302° |
| 2026-05-06 11:49 | 49.58610 | 10.45693 | 16083 ft | 357 kts | 302° |
| 2026-05-06 11:49 | 49.60071 | 10.42565 | 16737 ft | 362 kts | 302° |
| 2026-05-06 11:50 | 49.61545 | 10.39398 | 17391 ft | 366 kts | 302° |
| 2026-05-06 11:50 | 49.63031 | 10.36191 | 18071 ft | 369 kts | 302° |
| 2026-05-06 11:50 | 49.64526 | 10.32953 | 18655 ft | 372 kts | 302° |
| 2026-05-06 11:50 | 49.66030 | 10.29688 | 19247 ft | 374 kts | 302° |
| 2026-05-06 11:51 | 49.67542 | 10.26402 | 19862 ft | 376 kts | 302° |
| 2026-05-06 11:51 | 49.69063 | 10.23096 | 20484 ft | 379 kts | 302° |
| 2026-05-06 11:51 | 49.70594 | 10.19771 | 21078 ft | 381 kts | 302° |
| 2026-05-06 11:51 | 49.72129 | 10.16435 | 21612 ft | 384 kts | 302° |
| 2026-05-06 11:52 | 49.73677 | 10.13070 | 21774 ft | 383 kts | 302° |
| 2026-05-06 11:52 | 49.75198 | 10.09761 | 21648 ft | 372 kts | 302° |
| 2026-05-06 11:52 | 49.76683 | 10.06524 | 21263 ft | 366 kts | 302° |
| 2026-05-06 11:52 | 49.78148 | 10.03326 | 20821 ft | 362 kts | 302° |
| 2026-05-06 11:53 | 49.79589 | 10.00181 | 20074 ft | 357 kts | 302° |
| 2026-05-06 11:53 | 49.81000 | 9.97091 | 19238 ft | 354 kts | 302° |
| 2026-05-06 11:53 | 49.82415 | 9.93982 | 18438 ft | 352 kts | 302° |
| 2026-05-06 11:53 | 49.83807 | 9.90913 | 17841 ft | 343 kts | 302° |
| 2026-05-06 11:54 | 49.85164 | 9.87921 | 17412 ft | 338 kts | 302° |
| 2026-05-06 11:54 | 49.86505 | 9.84955 | 17008 ft | 336 kts | 302° |
| 2026-05-06 11:54 | 49.87845 | 9.82001 | 16594 ft | 334 kts | 302° |
| 2026-05-06 11:54 | 49.89089 | 9.78987 | 16200 ft | 329 kts | 293° |
| 2026-05-06 11:55 | 49.89983 | 9.75755 | 15811 ft | 325 kts | 289° |
| 2026-05-06 11:55 | 49.90837 | 9.72515 | 15418 ft | 324 kts | 289° |
| 2026-05-06 11:55 | 49.91689 | 9.69291 | 15032 ft | 322 kts | 289° |
| 2026-05-06 11:55 | 49.92497 | 9.66053 | 14636 ft | 319 kts | 283° |
| 2026-05-06 11:56 | 49.92838 | 9.62700 | 14257 ft | 313 kts | 268° |
| 2026-05-06 11:56 | 49.92611 | 9.59382 | 13881 ft | 308 kts | 253° |
| 2026-05-06 11:56 | 49.91894 | 9.56278 | 13502 ft | 305 kts | 246° |
| 2026-05-06 11:56 | 49.91086 | 9.53243 | 13103 ft | 303 kts | 246° |
| 2026-05-06 11:57 | 49.90288 | 9.50241 | 12727 ft | 300 kts | 246° |
| 2026-05-06 11:57 | 49.89496 | 9.47252 | 12342 ft | 298 kts | 246° |
| 2026-05-06 11:57 | 49.88714 | 9.44290 | 11971 ft | 295 kts | 246° |
| 2026-05-06 11:57 | 49.87938 | 9.41352 | 11603 ft | 293 kts | 246° |
| 2026-05-06 11:58 | 49.87167 | 9.38438 | 11226 ft | 291 kts | 247° |
| 2026-05-06 11:58 | 49.86678 | 9.35404 | 10860 ft | 291 kts | 263° |
| 2026-05-06 11:58 | 49.86770 | 9.32321 | 10770 ft | 286 kts | 278° |
| 2026-05-06 11:58 | 49.87296 | 9.29339 | 10782 ft | 286 kts | 284° |
| 2026-05-06 11:59 | 49.87862 | 9.26387 | 10776 ft | 286 kts | 283° |
| 2026-05-06 11:59 | 49.88430 | 9.23426 | 10737 ft | 286 kts | 285° |
| 2026-05-06 11:59 | 49.89405 | 9.20754 | 10383 ft | 289 kts | 310° |
| 2026-05-06 11:59 | 49.91049 | 9.18952 | 10015 ft | 293 kts | 331° |
| 2026-05-06 12:00 | 49.92907 | 9.17645 | 9631 ft | 294 kts | 334° |
| 2026-05-06 12:00 | 49.94781 | 9.16399 | 9233 ft | 292 kts | 334° |
| 2026-05-06 12:00 | 49.96647 | 9.15167 | 8833 ft | 290 kts | 334° |
| 2026-05-06 12:00 | 49.98496 | 9.13946 | 8454 ft | 288 kts | 334° |
| 2026-05-06 12:01 | 50.00333 | 9.12731 | 8084 ft | 286 kts | 334° |
| 2026-05-06 12:01 | 50.02156 | 9.11530 | 7712 ft | 284 kts | 334° |
| 2026-05-06 12:01 | 50.03966 | 9.10340 | 7338 ft | 282 kts | 334° |
| 2026-05-06 12:01 | 50.05764 | 9.09144 | 6951 ft | 280 kts | 334° |
| 2026-05-06 12:02 | 50.07552 | 9.07951 | 6527 ft | 280 kts | 334° |
| 2026-05-06 12:02 | 50.09341 | 9.06773 | 6137 ft | 279 kts | 337° |
| 2026-05-06 12:02 | 50.11242 | 9.06344 | 5946 ft | 274 kts | 0° |
| 2026-05-06 12:02 | 50.13102 | 9.06568 | 5808 ft | 263 kts | 3° |
| 2026-05-06 12:03 | 50.14886 | 9.06850 | 5648 ft | 253 kts | 3° |
| 2026-05-06 12:03 | 50.16626 | 9.07082 | 5338 ft | 249 kts | 355° |
| 2026-05-06 12:03 | 50.18268 | 9.06496 | 5134 ft | 236 kts | 330° |
| 2026-05-06 12:03 | 50.19536 | 9.05019 | 4925 ft | 224 kts | 306° |
| 2026-05-06 12:04 | 50.20285 | 9.02957 | 4633 ft | 216 kts | 283° |
| 2026-05-06 12:04 | 50.20459 | 9.00663 | 4304 ft | 212 kts | 261° |
| 2026-05-06 12:04 | 50.20080 | 8.98522 | 4171 ft | 200 kts | 241° |
| 2026-05-06 12:04 | 50.19289 | 8.96833 | 4098 ft | 187 kts | 223° |
| 2026-05-06 12:05 | 50.18305 | 8.95605 | 4010 ft | 178 kts | 218° |
| 2026-05-06 12:05 | 50.17351 | 8.94438 | 3989 ft | 176 kts | 218° |
| 2026-05-06 12:05 | 50.16385 | 8.93252 | 3988 ft | 177 kts | 218° |
| 2026-05-06 12:05 | 50.15409 | 8.92052 | 3995 ft | 179 kts | 219° |
| 2026-05-06 12:06 | 50.14438 | 8.90860 | 3998 ft | 177 kts | 219° |
| 2026-05-06 12:06 | 50.13450 | 8.89648 | 3998 ft | 179 kts | 218° |
| 2026-05-06 12:06 | 50.12467 | 8.88445 | 4001 ft | 179 kts | 218° |
| 2026-05-06 12:06 | 50.11507 | 8.87268 | 4000 ft | 178 kts | 218° |
| 2026-05-06 12:07 | 50.10594 | 8.85922 | 3997 ft | 179 kts | 233° |
| 2026-05-06 12:07 | 50.10053 | 8.84189 | 4000 ft | 178 kts | 249° |
| 2026-05-06 12:07 | 50.09621 | 8.82354 | 3695 ft | 183 kts | 248° |
| 2026-05-06 12:07 | 50.09181 | 8.80502 | 3357 ft | 182 kts | 248° |
| 2026-05-06 12:08 | 50.08757 | 8.78707 | 3097 ft | 178 kts | 248° |
| 2026-05-06 12:08 | 50.08336 | 8.76924 | 2856 ft | 171 kts | 247° |
| 2026-05-06 12:08 | 50.07947 | 8.75275 | 2619 ft | 154 kts | 247° |
| 2026-05-06 12:08 | 50.07596 | 8.73789 | 2443 ft | 142 kts | 248° |
| 2026-05-06 12:09 | 50.07264 | 8.72386 | 2247 ft | 135 kts | 247° |
| 2026-05-06 12:09 | 50.07049 | 8.71481 | 2132 ft | 133 kts | 248° |
| 2026-05-06 12:09 | 50.06727 | 8.70120 | 1954 ft | 131 kts | 247° |
| 2026-05-06 12:09 | 50.06410 | 8.68787 | 1766 ft | 134 kts | 247° |
| 2026-05-06 12:10 | 50.06091 | 8.67441 | 1606 ft | 132 kts | 246° |
| 2026-05-06 12:10 | 50.05775 | 8.66109 | 1427 ft | 132 kts | 246° |
| 2026-05-06 12:10 | 50.05459 | 8.64777 | 1238 ft | 131 kts | 245° |
| 2026-05-06 12:10 | 50.05136 | 8.63420 | 1059 ft | 138 kts | 247° |
| 2026-05-06 12:11 | 50.04805 | 8.62016 | 859 ft | 137 kts | 245° |
| 2026-05-06 12:11 | 50.04487 | 8.60666 | 675 ft | 129 kts | 248° |
| 2026-05-06 12:11 | 50.04183 | 8.59374 | 500 ft | 127 kts | 246° |
| 2026-05-06 12:11 | 50.03877 | 8.58112 | 371 ft | 118 kts | 248° |
| 2026-05-06 12:12 | 50.03635 | 8.57127 | 356 ft | 74 kts | 249° |
| 2026-05-06 12:12 | 50.03511 | 8.56603 | 358 ft | 38 kts | 250° |
| 2026-05-06 12:12 | 50.03447 | 8.56300 | 359 ft | 26 kts | 257° |
| 2026-05-06 12:12 | 50.03441 | 8.56016 | 347 ft | 28 kts | 277° |
| 2026-05-06 12:13 | 50.03473 | 8.55746 | 344 ft | 21 kts | 295° |
| 2026-05-06 12:13 | 50.03562 | 8.55786 | 348 ft | 15 kts | 65° |
| 2026-05-06 12:13 | 50.03607 | 8.55956 | 354 ft | 23 kts | 70° |
| 2026-05-06 12:13 | 50.03661 | 8.56191 | 357 ft | 22 kts | 63° |
| 2026-05-06 12:14 | 50.03722 | 8.56398 | 361 ft | 20 kts | 74° |
| 2026-05-06 12:14 | 50.03761 | 8.56598 | 352 ft | 18 kts | 70° |
| 2026-05-06 12:14 | 50.03807 | 8.56788 | 353 ft | 23 kts | 69° |
| 2026-05-06 12:14 | 50.03868 | 8.57049 | 362 ft | 26 kts | 70° |
| 2026-05-06 12:15 | 50.03929 | 8.57301 | 368 ft | 23 kts | 69° |
| 2026-05-06 12:15 | 50.03980 | 8.57517 | 367 ft | 20 kts | 70° |
| 2026-05-06 12:15 | 50.04024 | 8.57708 | 369 ft | 18 kts | 70° |
| 2026-05-06 12:15 | 50.04063 | 8.57879 | 367 ft | 16 kts | 71° |
| 2026-05-06 12:16 | 50.04101 | 8.58033 | 370 ft | 14 kts | 69° |
| 2026-05-06 12:16 | 50.04134 | 8.58167 | 368 ft | 13 kts | 69° |
| 2026-05-06 12:16 | 50.04164 | 8.58288 | 370 ft | 11 kts | 69° |
| 2026-05-06 12:16 | 50.04190 | 8.58394 | 370 ft | 10 kts | 69° |
| 2026-05-06 12:17 | 50.04235 | 8.58572 | 370 ft | 29 kts | 68° |
| 2026-05-06 12:17 | 50.04322 | 8.58917 | 375 ft | 30 kts | 69° |
| 2026-05-06 12:17 | 50.04388 | 8.59222 | 376 ft | 30 kts | 71° |
| 2026-05-06 12:17 | 50.04444 | 8.59452 | 376 ft | 18 kts | 49° |
| 2026-05-06 12:18 | 50.04562 | 8.59468 | 373 ft | 19 kts | 358° |
| 2026-05-06 12:18 | 50.04719 | 8.59433 | 372 ft | 24 kts | 342° |
| 2026-05-06 12:18 | 50.04864 | 8.59358 | 371 ft | 21 kts | 341° |
| 2026-05-06 12:18 | 50.04976 | 8.59353 | 369 ft | 16 kts | 344° |
| 2026-05-06 12:19 | 50.05050 | 8.59309 | 362 ft | 7 kts | 332° |
| 2026-05-06 12:19 | 50.05078 | 8.59258 | 361 ft | 7 kts | 287° |
| 2026-05-06 12:19 | 50.05068 | 8.59163 | 361 ft | 10 kts | 251° |
| 2026-05-06 12:19 | 50.05036 | 8.59054 | 361 ft | 11 kts | 220° |
| 2026-05-06 12:20 | 50.04973 | 8.59068 | 362 ft | 4 kts | 158° |
| 2026-05-06 12:20 | 50.04961 | 8.59075 | 362 ft | 0 kts | 159° |
| 2026-05-06 12:20 | 50.04960 | 8.59076 | 366 ft | 0 kts | 159° |